Time;durP1;ratioP1;P1;durP2;ratioP2;P2;SDS_P1;SDS_P2;PMS_P1;PMS_P2;Temp;Humidity;BMP_temperature;BMP_pressure;BME280_temperature;BME280_humidity;BME280_pressure;Samples;Min_cycle;Max_cycle;Signal;HPM_P1;HPM_P2
2023/08/21 00:01:25;;;;;;;0.93;0.93;;;;;;;24.44;60.50;100067.34;4263919;33;20117;-93
2023/08/21 00:03:50;;;;;;;5.45;0.90;;;;;;;24.63;60.50;100074.63;4254547;33;20123;-93
2023/08/21 00:06:15;;;;;;;0.75;0.75;;;;;;;24.46;60.50;100072.53;4274843;33;20170;-93
2023/08/21 00:08:41;;;;;;;1.80;0.77;;;;;;;24.27;60.48;100075.84;4269322;33;20111;-93
2023/08/21 00:11:06;;;;;;;0.35;0.35;;;;;;;24.28;60.48;100084.69;4249144;33;20094;-93
2023/08/21 00:13:32;;;;;;;4.80;0.95;;;;;;;24.30;60.49;100078.28;4260983;33;20136;-92
2023/08/21 00:15:57;;;;;;;0.60;0.60;;;;;;;24.37;60.50;100076.81;4252443;33;20098;-92
2023/08/21 00:18:23;;;;;;;1.70;0.93;;;;;;;24.15;60.48;100082.22;4249206;33;20157;-93
2023/08/21 00:20:48;;;;;;;0.47;0.43;;;;;;;24.30;60.49;100080.94;4249880;33;20113;-93
2023/08/21 00:23:14;;;;;;;2.03;1.92;;;;;;;24.08;60.48;100081.84;4269130;33;20105;-93
2023/08/21 00:25:39;;;;;;;2.55;1.87;;;;;;;24.29;60.48;100081.09;4258309;33;20125;-93
2023/08/21 00:28:05;;;;;;;0.50;0.50;;;;;;;23.99;60.47;100082.62;4248607;33;20166;-93
2023/08/21 00:30:30;;;;;;;0.30;0.30;;;;;;;24.06;60.48;100078.47;4261043;33;20098;-94
2023/08/21 00:32:56;;;;;;;1.42;1.12;;;;;;;24.18;60.48;100077.47;4269368;33;20100;-93
2023/08/21 00:35:21;;;;;;;0.57;0.57;;;;;;;24.27;60.49;100075.84;4260511;33;20227;-93
2023/08/21 00:37:47;;;;;;;0.90;0.57;;;;;;;24.37;60.48;100067.97;4248845;33;20131;-93
2023/08/21 00:40:14;;;;;;;0.90;0.90;;;;;;;24.57;60.50;100074.28;4262014;33;20197;-94
2023/08/21 00:42:42;;;;;;;0.93;0.82;;;;;;;24.53;60.49;100075.50;4260673;33;20105;-95
2023/08/21 00:45:08;;;;;;;1.00;0.90;;;;;;;24.54;60.50;100074.53;4248613;33;20703;-93
2023/08/21 00:47:35;;;;;;;1.52;1.35;;;;;;;24.30;60.49;100085.44;4248886;33;20152;-92
2023/08/21 00:50:00;;;;;;;3.22;1.02;;;;;;;24.17;60.48;100086.44;4273174;33;20109;-93
2023/08/21 00:52:28;;;;;;;4.30;1.00;;;;;;;24.31;60.49;100095.94;4269127;33;20153;-93
2023/08/21 00:54:53;;;;;;;0.57;0.57;;;;;;;23.96;60.46;100090.88;4248734;33;20105;-94
2023/08/21 00:57:18;;;;;;;1.08;0.90;;;;;;;23.92;60.47;100086.78;4248522;33;20154;-93
2023/08/21 00:59:44;;;;;;;0.85;0.80;;;;;;;23.88;60.46;100093.28;4259992;33;20453;-94
2023/08/21 01:02:10;;;;;;;2.72;1.33;;;;;;;23.93;60.47;100087.63;4248789;33;20933;-93
2023/08/21 01:04:35;;;;;;;1.10;1.10;;;;;;;24.09;60.47;100083.53;4247571;33;20346;-93
2023/08/21 01:07:01;;;;;;;0.88;0.88;;;;;;;24.05;60.47;100090.09;4248709;33;20110;-94
2023/08/21 01:09:38;;;;;;;5.72;1.27;;;;;;;24.09;60.47;100085.38;4261560;33;20109;-92
2023/08/21 01:12:29;;;;;;;0.60;0.60;;;;;;;24.01;60.47;100082.50;4279407;33;20097;-93
2023/08/21 01:14:57;;;;;;;1.37;0.98;;;;;;;23.98;60.48;100091.59;4256092;33;20102;-93
2023/08/21 01:17:23;;;;;;;1.23;0.80;;;;;;;24.23;60.48;100090.38;4276399;33;20161;-93
2023/08/21 01:20:01;;;;;;;1.23;0.98;;;;;;;23.99;60.47;100090.59;4248220;33;20118;-94
2023/08/21 01:22:45;;;;;;;;;;;;;;;;;;;;;
2023/08/21 01:36:03;;;;;;;;;;;;;;;;;;;;;
2023/08/21 01:53:24;;;;;;;;;;;;;;;;;;;;;
2023/08/21 01:55:32;;;;;;;1.10;1.10;;;;;;;23.47;60.44;100117.88;4146657;34;20128;-94
2023/08/21 01:57:58;;;;;;;13.73;0.88;;;;;;;23.50;60.44;100115.81;4193197;34;20181;-93
2023/08/21 02:00:23;;;;;;;1.02;0.60;;;;;;;23.41;60.44;100121.00;4236662;33;20140;-94
2023/08/21 02:02:51;;;;;;;1.37;0.93;;;;;;;23.35;60.43;100127.66;4256346;33;20094;-94
2023/08/21 02:05:26;;;;;;;0.70;0.70;;;;;;;23.57;60.44;100122.34;4248453;33;20129;-94
2023/08/21 02:07:52;;;;;;;0.98;0.90;;;;;;;23.48;60.44;100123.06;4261281;33;20121;-94
2023/08/21 02:10:20;;;;;;;0.57;0.57;;;;;;;23.62;60.45;100118.47;4267775;33;20130;-94
2023/08/21 02:12:55;;;;;;;0.20;0.20;;;;;;;23.55;60.44;100118.94;4260056;33;20136;-94
2023/08/21 02:15:23;;;;;;;1.00;0.85;;;;;;;23.48;60.44;100119.56;4259883;33;20677;-94
2023/08/21 02:18:42;;;;;;;;;;;;;;;;;;;;;
2023/08/21 02:21:28;;;;;;;0.98;0.70;;;;;;;23.14;60.43;100121.38;4190451;34;36421;-94
2023/08/21 02:24:08;;;;;;;;;;;;;;;;;;;;;
2023/08/21 02:26:47;;;;;;;0.45;0.45;;;;;;;23.31;60.43;100110.28;4265459;33;36489;-94
2023/08/21 02:29:14;;;;;;;0.40;0.40;;;;;;;23.39;60.44;100113.16;4247461;33;20104;-94
2023/08/21 02:31:40;;;;;;;1.08;0.60;;;;;;;23.12;60.42;100104.72;4259745;33;20119;-94
2023/08/21 02:34:08;;;;;;;0.70;0.70;;;;;;;23.39;60.44;100112.31;4259592;33;20109;-93
2023/08/21 02:36:34;;;;;;;0.80;0.80;;;;;;;23.37;60.44;100116.91;4259632;33;20156;-93
2023/08/21 02:39:02;;;;;;;1.27;1.17;;;;;;;23.25;60.43;100111.63;4262223;33;20375;-94
2023/08/21 02:41:45;;;;;;;;;;;;;;;;;;;;;
2023/08/21 02:44:11;;;;;;;0.73;0.73;;;;;;;23.50;60.44;100109.66;4254237;33;35431;-94
2023/08/21 02:46:37;;;;;;;1.17;1.10;;;;;;;23.02;60.42;100112.56;4263949;33;20353;-92
2023/08/21 02:49:02;;;;;;;0.28;0.28;;;;;;;23.11;60.42;100109.19;4247854;33;20106;-93
2023/08/21 02:51:39;;;;;;;0.47;0.47;;;;;;;23.00;60.42;100113.66;4252265;33;20153;-93
2023/08/21 02:54:17;;;;;;;1.45;1.37;;;;;;;22.99;60.42;100109.31;4252983;33;20715;-95
2023/08/21 02:56:52;;;;;;;;;;;;;;;;;;;;;
2023/08/21 02:59:26;;;;;;;0.98;0.85;;;;;;;22.95;60.41;100109.56;4258089;33;35296;-93
2023/08/21 03:01:53;;;;;;;1.27;0.62;;;;;;;22.80;60.40;100113.34;4245284;33;20369;-94
2023/08/21 03:04:19;;;;;;;0.35;0.35;;;;;;;22.83;60.41;100110.50;4268458;33;20073;-94
2023/08/21 03:06:44;;;;;;;2.05;0.95;;;;;;;22.90;60.41;100110.84;4260079;33;20136;-93
2023/08/21 03:09:10;;;;;;;0.30;0.30;;;;;;;22.92;60.41;100107.09;4247452;33;20110;-94
2023/08/21 03:11:58;;;;;;;;;;;;;;;;;;;;;
2023/08/21 03:58:25;;;;;;;;;;;;;;;;;;;;;
2023/08/21 04:07:58;;;;;;;0.60;0.60;;;;;;;22.57;60.39;100122.22;4539398;28;20106;-93
2023/08/21 04:10:32;;;;;;;1.70;1.37;;;;;;;22.62;60.39;100125.37;4250062;33;20093;-94
2023/08/21 04:13:02;;;;;;;1.10;0.80;;;;;;;22.72;60.39;100123.72;4260785;33;20232;-93
2023/08/21 04:15:56;;;;;;;0.10;0.10;;;;;;;22.61;60.39;100118.37;4274574;33;20118;-94
2023/08/21 04:18:40;;;;;;;3.17;1.35;;;;;;;22.71;60.39;100121.16;4234649;33;20113;-93
2023/08/21 04:21:09;;;;;;;2.17;0.75;;;;;;;22.75;60.40;100123.47;4254427;33;20080;-93
2023/08/21 04:23:35;;;;;;;1.12;0.77;;;;;;;22.80;60.40;100116.00;4246507;33;20092;-93
2023/08/21 04:26:04;;;;;;;0.10;0.10;;;;;;;22.82;60.41;100121.22;4248714;33;20137;-93
2023/08/21 04:28:32;;;;;;;0.55;0.55;;;;;;;22.96;60.42;100119.22;4237627;33;20192;-93
2023/08/21 04:31:00;;;;;;;0.95;0.95;;;;;;;23.11;60.42;100125.13;4250301;33;20094;-93
2023/08/21 04:33:26;;;;;;;3.50;1.33;;;;;;;23.29;60.43;100125.50;4251493;33;20119;-92
2023/08/21 04:35:54;;;;;;;0.37;0.37;;;;;;;23.30;60.43;100126.34;4239395;33;20109;-92
2023/08/21 04:38:22;;;;;;;0.75;0.65;;;;;;;23.32;60.43;100127.91;4239424;33;20148;-91
2023/08/21 04:40:47;;;;;;;1.27;0.40;;;;;;;23.44;60.45;100142.88;4239926;33;20172;-93
2023/08/21 04:43:13;;;;;;;1.12;1.08;;;;;;;23.51;60.43;100130.78;4239536;33;20333;-93
2023/08/21 04:45:40;;;;;;;5.05;1.83;;;;;;;23.35;60.43;100132.97;4239960;33;20140;-92
2023/08/21 04:48:06;;;;;;;0.43;0.43;;;;;;;23.33;60.43;100132.25;4240025;33;20144;-93
2023/08/21 04:50:36;;;;;;;1.52;1.42;;;;;;;23.45;60.44;100127.78;4239091;33;20105;-93
2023/08/21 04:53:11;;;;;;;0.90;0.88;;;;;;;23.45;60.44;100138.41;4243924;33;20420;-92
2023/08/21 04:55:37;;;;;;;1.30;1.12;;;;;;;23.60;60.44;100134.56;4241349;33;20132;-91
2023/08/21 04:58:05;;;;;;;4.12;1.60;;;;;;;23.67;60.44;100134.94;4239134;33;20141;-92
2023/08/21 05:00:31;;;;;;;1.45;1.35;;;;;;;23.72;60.44;100135.41;4262633;33;20129;-93
2023/08/21 05:03:16;;;;;;;1.20;0.77;;;;;;;23.99;60.47;100137.62;4239449;33;20171;-93
2023/08/21 05:05:51;;;;;;;1.00;1.00;;;;;;;24.00;60.47;100140.16;4251079;33;20170;-92
2023/08/21 05:08:16;;;;;;;3.33;2.37;;;;;;;23.99;60.47;100146.44;4240209;33;20169;-92
2023/08/21 05:10:42;;;;;;;0.37;0.32;;;;;;;24.08;60.47;100137.72;4239185;33;20402;-92
2023/08/21 05:13:07;;;;;;;0.70;0.70;;;;;;;24.14;60.48;100134.56;4249788;33;20129;-92
2023/08/21 05:15:33;;;;;;;0.80;0.80;;;;;;;24.21;60.48;100136.72;4250980;33;20153;-91
2023/08/21 05:17:58;;;;;;;0.62;0.62;;;;;;;24.30;60.49;100141.28;4238791;33;20106;-92
2023/08/21 05:20:24;;;;;;;2.20;1.75;;;;;;;24.47;60.49;100148.72;4239098;33;20119;-92
2023/08/21 05:22:49;;;;;;;0.73;0.73;;;;;;;24.75;60.50;100144.59;4242809;33;20092;-92
2023/08/21 05:25:15;;;;;;;1.12;1.12;;;;;;;24.81;60.50;100141.41;4249303;33;20167;-91
2023/08/21 05:27:40;;;;;;;7.62;5.70;;;;;;;24.79;60.51;100140.69;4249372;33;20192;-92
2023/08/21 05:30:06;;;;;;;3.28;2.30;;;;;;;25.05;60.52;100142.00;4238986;33;20073;-92
2023/08/21 05:32:31;;;;;;;3.92;2.65;;;;;;;25.26;60.53;100141.13;4252950;33;20114;-92
2023/08/21 05:34:57;;;;;;;7.43;2.22;;;;;;;25.48;60.55;100145.41;4250080;33;20154;-93
2023/08/21 05:37:22;;;;;;;1.08;0.68;;;;;;;25.55;60.54;100141.22;4248742;33;20127;-93
2023/08/21 05:39:48;;;;;;;1.37;0.82;;;;;;;25.73;60.56;100144.97;4238738;33;20112;-92
2023/08/21 05:42:14;;;;;;;3.10;1.67;;;;;;;25.76;60.55;100150.03;4250610;33;20093;-94
2023/08/21 05:44:44;;;;;;;1.27;1.12;;;;;;;25.76;60.55;100152.69;4257781;33;20169;-94
2023/08/21 05:47:10;;;;;;;7.05;2.37;;;;;;;25.92;60.56;100155.69;4250046;33;20101;-93
2023/08/21 05:49:36;;;;;;;1.87;1.50;;;;;;;26.14;60.57;100151.94;4250549;33;20488;-94
2023/08/21 05:52:01;;;;;;;0.50;0.50;;;;;;;26.15;60.57;100158.13;4238918;33;20089;-94
2023/08/21 05:54:29;;;;;;;2.03;1.55;;;;;;;26.29;60.58;100153.22;4244919;33;20131;-94
2023/08/21 05:56:54;;;;;;;6.55;0.85;;;;;;;26.35;60.59;100156.34;4239263;33;20166;-94
2023/08/21 05:59:30;;;;;;;0.80;0.75;;;;;;;26.38;60.59;100164.91;4250582;33;20137;-93
2023/08/21 06:01:55;;;;;;;1.42;1.33;;;;;;;26.45;60.59;100160.69;4239173;33;20488;-94
2023/08/21 06:04:30;;;;;;;;;;;;;;;;;;;;;
2023/08/21 06:06:56;;;;;;;0.98;0.40;;;;;;;26.67;60.60;100154.19;4242111;33;36064;-92
2023/08/21 06:09:22;;;;;;;0.43;0.40;;;;;;;26.79;60.60;100160.25;4238789;33;20223;-93
2023/08/21 06:11:49;;;;;;;0.60;0.60;;;;;;;26.88;60.62;100157.53;4238592;33;20105;-93
2023/08/21 06:14:15;;;;;;;1.45;1.35;;;;;;;27.03;60.62;100157.97;4250754;33;20132;-93
2023/08/21 06:16:40;;;;;;;2.20;2.00;;;;;;;27.33;60.63;100159.56;4248061;33;20117;-94
2023/08/21 06:19:06;;;;;;;0.73;0.73;;;;;;;27.44;60.64;100162.03;4242094;33;20119;-94
2023/08/21 06:21:36;;;;;;;0.45;0.45;;;;;;;27.51;60.64;100152.47;4238638;33;20165;-95
2023/08/21 06:24:07;;;;;;;1.08;0.80;;;;;;;27.71;60.66;100163.09;4238185;33;20114;-94
2023/08/21 06:26:32;;;;;;;0.60;0.60;;;;;;;28.13;60.67;100153.50;4238854;33;20131;-93
2023/08/21 06:28:57;;;;;;;0.35;0.35;;;;;;;28.09;60.67;100165.53;4238489;33;20113;-93
2023/08/21 06:31:26;;;;;;;1.60;0.75;;;;;;;28.17;60.68;100154.09;4238834;33;20133;-94
2023/08/21 06:33:54;;;;;;;1.37;1.27;;;;;;;28.26;60.68;100158.53;4250252;33;20204;-93
2023/08/21 06:36:27;;;;;;;0.60;0.60;;;;;;;28.38;60.68;100148.44;4250221;33;20741;-94
2023/08/21 06:38:52;;;;;;;0.60;0.60;;;;;;;28.49;60.69;100164.28;4228384;33;20168;-93
2023/08/21 06:41:18;;;;;;;0.60;0.60;;;;;;;28.57;60.70;100160.81;4249982;33;20127;-94
2023/08/21 06:43:44;;;;;;;1.33;1.20;;;;;;;28.73;60.71;100158.28;4240308;33;20188;-93
2023/08/21 06:46:27;;;;;;;1.65;1.23;;;;;;;29.11;60.73;100159.75;4244344;33;20140;-93
2023/08/21 06:48:53;;;;;;;1.20;1.05;;;;;;;29.40;60.73;100156.72;4230004;33;20097;-92
2023/08/21 06:51:38;;;;;;;3.28;1.42;;;;;;;29.69;60.75;100155.53;4242524;33;20089;-94
2023/08/21 06:54:06;;;;;;;0.62;0.60;;;;;;;29.51;60.75;100156.47;4249485;33;20549;-94
2023/08/21 06:56:32;;;;;;;0.85;0.85;;;;;;;29.63;60.74;100149.81;4238640;33;20114;-94
2023/08/21 06:59:09;;;;;;;1.15;1.05;;;;;;;29.85;60.76;100155.59;4251190;33;20166;-94
2023/08/21 07:01:35;;;;;;;1.23;1.10;;;;;;;29.85;60.76;100152.91;4241322;33;20154;-94
2023/08/21 07:04:10;;;;;;;0.50;0.50;;;;;;;30.18;60.78;100146.63;4249111;33;20398;-94
2023/08/21 07:06:40;;;;;;;1.45;1.00;;;;;;;30.13;60.77;100140.94;4249652;33;20137;-94
2023/08/21 07:09:16;;;;;;;;;;;;;;;;;;;;;
2023/08/21 07:11:44;;;;;;;0.52;0.52;;;;;;;30.23;60.79;100143.44;4256082;33;36055;-93
2023/08/21 07:14:13;;;;;;;0.82;0.77;;;;;;;30.28;60.78;100149.16;4256477;33;20156;-94
2023/08/21 07:16:48;;;;;;;1.07;0.77;;;;;;;30.49;60.79;100146.81;4242701;33;20117;-93
2023/08/21 07:29:14;;;;;;;;;;;;;;;;;;;;;
2023/08/21 07:35:42;;;;;;;;;;;;;;;;;;;;;
2023/08/21 07:38:42;;;;;;;4.03;1.58;;;;;;;31.25;60.84;100151.00;4218809;34;35992;-95
2023/08/21 07:41:09;;;;;;;1.15;1.05;;;;;;;31.37;60.83;100154.97;4211075;33;20102;-92
2023/08/21 07:43:40;;;;;;;3.42;0.90;;;;;;;31.51;60.85;100150.75;4222114;33;20181;-93
2023/08/21 07:46:25;;;;;;;0.95;0.82;;;;;;;31.43;60.85;100150.75;4230538;33;20202;-94
2023/08/21 07:48:52;;;;;;;1.00;1.00;;;;;;;31.79;60.86;100144.91;4241519;33;20747;-93
2023/08/21 07:51:22;;;;;;;0.93;0.93;;;;;;;31.58;60.86;100153.56;4251604;33;20125;-93
2023/08/21 07:54:03;;;;;;;;;;;;;;;;;;;;;
2023/08/21 07:56:41;;;;;;;0.70;0.70;;;;;;;31.77;60.87;100155.03;4251689;33;35416;-93
2023/08/21 07:59:29;;;;;;;1.42;1.33;;;;;;;31.91;60.87;100155.09;4252500;33;20169;-95
2023/08/21 08:02:04;;;;;;;4.32;1.25;;;;;;;32.00;60.87;100158.59;4262380;33;20143;-93
2023/08/21 08:05:07;;;;;;;0.68;0.68;;;;;;;32.11;60.88;100147.41;4251485;33;20124;-94
2023/08/21 08:08:06;;;;;;;1.52;1.42;;;;;;;31.99;60.88;100148.84;4241431;33;20102;-94
2023/08/21 08:10:39;;;;;;;2.67;0.57;;;;;;;32.12;60.88;100153.63;4244286;33;20463;-92
2023/08/21 08:13:07;;;;;;;0.75;0.65;;;;;;;31.99;60.87;100147.00;4239074;33;20118;-94
2023/08/21 08:15:34;;;;;;;1.37;1.23;;;;;;;32.16;60.88;100146.88;4251477;33;20141;-94
2023/08/21 08:18:09;;;;;;;0.85;0.85;;;;;;;32.29;60.88;100147.16;4239003;33;20104;-93
2023/08/21 08:20:34;;;;;;;1.33;0.85;;;;;;;32.57;60.90;100144.72;4252403;33;20109;-93
2023/08/21 08:23:00;;;;;;;2.55;1.55;;;;;;;32.51;60.89;100146.31;4229900;33;20143;-94
2023/08/21 08:25:25;;;;;;;1.25;1.00;;;;;;;32.57;60.90;100145.56;4239372;33;20138;-93
2023/08/21 08:27:51;;;;;;;2.83;1.17;;;;;;;32.42;60.89;100147.41;4229948;33;20093;-93
2023/08/21 08:30:17;;;;;;;0.50;0.45;;;;;;;32.60;60.89;100147.91;4238753;33;20144;-92
2023/08/21 08:32:44;;;;;;;1.50;1.40;;;;;;;32.86;60.92;100149.37;4250099;33;20129;-93
2023/08/21 08:35:12;;;;;;;1.30;1.15;;;;;;;32.92;60.92;100140.56;4239056;33;20849;-92
2023/08/21 08:37:37;;;;;;;2.00;0.82;;;;;;;33.25;60.94;100149.97;4243818;33;209002;-94
2023/08/21 08:40:03;;;;;;;0.47;0.47;;;;;;;33.25;60.94;100149.97;4250050;33;20160;-92
2023/08/21 08:42:29;;;;;;;1.30;0.98;;;;;;;33.43;60.95;100148.81;4250646;33;20140;-94
2023/08/21 08:44:54;;;;;;;0.60;0.60;;;;;;;33.69;60.95;100146.44;4239093;33;20476;-94
2023/08/21 08:47:19;;;;;;;1.15;1.15;;;;;;;33.85;60.97;100146.28;4250194;33;25434;-92
2023/08/21 08:49:47;;;;;;;2.62;1.33;;;;;;;33.97;60.96;100149.28;4250778;33;20144;-92
2023/08/21 08:52:12;;;;;;;0.60;0.50;;;;;;;34.05;60.97;100151.03;4230013;33;20747;-92
2023/08/21 08:54:38;;;;;;;1.60;1.35;;;;;;;34.33;60.99;100145.72;4250629;33;20163;-94
2023/08/21 08:57:03;;;;;;;1.00;0.95;;;;;;;34.45;61.00;100147.72;4239529;33;20139;-93
2023/08/21 08:59:32;;;;;;;0.73;0.73;;;;;;;34.47;61.00;100148.38;4251098;33;20254;-95
2023/08/21 09:01:58;;;;;;;3.60;1.95;;;;;;;34.58;61.01;100154.31;4229935;33;20983;-95
2023/08/21 09:04:23;;;;;;;1.27;0.77;;;;;;;34.73;61.01;100144.22;4239040;33;20151;-93
2023/08/21 09:06:49;;;;;;;1.65;1.35;;;;;;;34.94;61.01;100152.31;4238691;33;20371;-95
2023/08/21 09:09:14;;;;;;;1.25;1.12;;;;;;;34.98;61.02;100153.59;4225366;33;20493;-95
2023/08/21 09:11:44;;;;;;;0.93;0.88;;;;;;;34.91;61.01;100158.13;4213991;33;20117;-94
2023/08/21 09:14:09;;;;;;;;;;;;;;;34.96;61.03;100158.38;4213328;33;20122;-95
2023/08/21 09:16:35;;;;;;;0.85;0.80;;;;;;;35.19;61.04;100151.84;4234430;33;19973;-95
2023/08/21 09:19:00;;;;;;;1.33;1.02;;;;;;;35.00;61.02;100147.97;4224155;33;20146;-95
2023/08/21 09:21:27;;;;;;;1.85;1.17;;;;;;;35.05;61.03;100148.25;4225296;33;20121;-93
2023/08/21 09:24:00;;;;;;;1.05;1.02;;;;;;;34.99;61.02;100151.72;4213998;33;20153;-95
2023/08/21 09:26:25;;;;;;;0.47;0.45;;;;;;;34.86;61.03;100151.63;4225205;33;20109;-94
2023/08/21 09:28:51;;;;;;;1.90;0.90;;;;;;;35.05;61.03;100150.94;4213471;33;20149;-95
2023/08/21 09:31:22;;;;;;;0.50;0.50;;;;;;;35.22;61.04;100144.16;4236964;33;20101;-95
2023/08/21 09:33:55;;;;;;;3.00;1.23;;;;;;;35.36;61.04;100139.69;4213715;33;20116;-94
2023/08/21 09:36:21;;;;;;;3.50;0.77;;;;;;;35.28;61.04;100137.12;4211523;33;20102;-94
2023/08/21 09:38:47;;;;;;;0.90;0.88;;;;;;;35.50;61.05;100137.91;4213479;33;20145;-94
2023/08/21 09:41:13;;;;;;;0.30;0.30;;;;;;;35.57;61.05;100133.34;4236479;33;20125;-92
2023/08/21 09:43:41;;;;;;;3.12;0.95;;;;;;;35.74;61.06;100125.72;4224979;33;20111;-94
2023/08/21 09:46:07;;;;;;;0.20;0.20;;;;;;;35.83;61.08;100117.22;4236659;33;20667;-96
2023/08/21 09:48:33;;;;;;;1.52;1.23;;;;;;;36.04;61.08;100121.66;4215705;33;20106;-95
2023/08/21 09:50:59;;;;;;;1.05;0.85;;;;;;;36.18;61.09;100117.91;4213157;33;20102;-93
2023/08/21 09:53:25;;;;;;;1.37;1.27;;;;;;;36.26;61.09;100127.72;4206532;33;20109;-94
2023/08/21 09:55:54;;;;;;;0.60;0.60;;;;;;;36.41;61.10;100119.41;4224888;33;20101;-95
2023/08/21 09:58:20;;;;;;;2.87;2.58;;;;;;;36.32;61.08;100117.97;4223934;33;20085;-94
2023/08/21 10:00:45;;;;;;;0.90;0.90;;;;;;;36.29;61.09;100117.31;4213243;33;20109;-94
2023/08/21 10:03:11;;;;;;;3.97;0.77;;;;;;;36.53;61.10;100123.19;4224776;33;20139;-95
2023/08/21 10:05:37;;;;;;;1.12;1.02;;;;;;;36.07;61.07;100117.69;4224598;33;20153;-95
2023/08/21 10:08:04;;;;;;;2.60;2.03;;;;;;;36.28;61.09;100112.94;4243327;33;20109;-96
2023/08/21 10:10:31;;;;;;;0.73;0.73;;;;;;;36.34;61.10;100108.56;4239097;33;20117;-95
2023/08/21 10:12:56;;;;;;;1.48;1.05;;;;;;;36.40;61.10;100096.88;4239329;33;20136;-95
2023/08/21 10:15:21;;;;;;;0.70;0.70;;;;;;;36.35;61.10;100095.84;4238970;33;20144;-94
2023/08/21 10:17:47;;;;;;;0.60;0.55;;;;;;;36.25;61.09;100096.25;4238564;33;20131;-94
2023/08/21 10:20:12;;;;;;;0.37;0.37;;;;;;;36.28;61.09;100102.09;4250730;33;20515;-95
2023/08/21 10:22:45;;;;;;;1.23;1.23;;;;;;;36.46;61.10;100095.25;4247912;33;20164;-96
2023/08/21 10:25:29;;;;;;;0.40;0.40;;;;;;;36.67;61.11;100095.00;4268029;33;20156;-93
2023/08/21 10:27:59;;;;;;;0.82;0.75;;;;;;;37.01;61.13;100095.81;4238400;33;20117;-93
2023/08/21 10:30:26;;;;;;;1.08;0.90;;;;;;;37.05;61.13;100089.75;4261803;33;20487;-93
2023/08/21 10:33:00;;;;;;;0.30;0.30;;;;;;;37.20;61.13;100086.78;4235874;33;20105;-95
2023/08/21 10:35:29;;;;;;;1.85;1.27;;;;;;;37.37;61.15;100087.16;4247268;33;20154;-94
2023/08/21 10:38:10;;;;;;;0.47;0.47;;;;;;;37.48;61.15;100089.22;4238604;33;20136;-94
2023/08/21 10:40:41;;;;;;;0.77;0.77;;;;;;;37.55;61.16;100091.87;4262165;33;20129;-96
2023/08/21 10:43:45;;;;;;;0.65;0.65;;;;;;;37.51;61.15;100087.94;4256297;33;20062;-94
2023/08/21 10:46:15;;;;;;;1.30;1.20;;;;;;;37.62;61.16;100079.09;4241429;33;20084;-95
2023/08/21 10:48:44;;;;;;;0.70;0.70;;;;;;;37.33;61.15;100084.03;4235658;33;20110;-96
2023/08/21 10:51:12;;;;;;;0.65;0.65;;;;;;;37.40;61.15;100082.16;4239016;33;20141;-96
2023/08/21 10:53:39;;;;;;;0.70;0.70;;;;;;;37.52;61.15;100074.16;4238822;33;20101;-95
2023/08/21 10:56:05;;;;;;;1.83;1.27;;;;;;;37.65;61.16;100084.97;4250445;33;20119;-95
2023/08/21 10:58:51;;;;;;;1.23;1.00;;;;;;;37.34;61.14;100077.56;4236321;33;20117;-95
2023/08/21 11:01:46;;;;;;;0.88;0.68;;;;;;;37.61;61.16;100078.25;4251311;33;20117;-93
2023/08/21 11:04:17;;;;;;;0.60;0.60;;;;;;;37.82;61.17;100076.31;4249310;33;20102;-95
2023/08/21 11:06:52;;;;;;;;;;;;;;;;;;;;;
2023/08/21 11:09:35;;;;;;;0.73;0.73;;;;;;;38.05;61.18;100068.41;4249860;33;35681;-93
2023/08/21 11:12:08;;;;;;;1.12;1.02;;;;;;;38.22;61.19;100066.84;4241325;33;20109;-96
2023/08/21 11:14:38;;;;;;;1.17;0.73;;;;;;;38.42;61.20;100069.41;4238244;33;20081;-95
2023/08/21 11:17:07;;;;;;;1.02;0.98;;;;;;;38.35;61.20;100060.47;4250626;33;20088;-95
2023/08/21 11:19:35;;;;;;;2.08;1.35;;;;;;;38.41;61.19;100065.03;4235999;33;20131;-95
2023/08/21 11:22:04;;;;;;;2.10;0.68;;;;;;;38.20;61.19;100057.25;4238016;33;20113;-94
2023/08/21 11:24:31;;;;;;;0.77;0.77;;;;;;;38.33;61.19;100070.72;4250235;33;20080;-94
2023/08/21 11:26:57;;;;;;;0.37;0.37;;;;;;;38.46;61.20;100061.63;4238343;33;20681;-95
2023/08/21 11:29:27;;;;;;;1.02;0.68;;;;;;;38.51;61.21;100068.06;4237697;33;20105;-95
2023/08/21 11:32:34;;;;;;;;;;;;;;;;;;;;;
2023/08/21 11:38:00;;;;;;;1.55;0.62;;;;;;;38.46;61.20;100061.63;4238269;33;20097;-93
2023/08/21 11:40:45;;;;;;;0.68;0.68;;;;;;;38.38;61.20;100055.44;4239242;33;20164;-93
2023/08/21 11:50:25;;;;;;;;;;;;;;;;;;;;;
2023/08/21 11:56:01;;;;;;;0.70;0.70;;;;;;;38.02;61.19;100060.69;4258106;33;20113;-95
2023/08/21 11:59:25;;;;;;;;;;;;;;;;;;;;;
2023/08/21 12:09:03;;;;;;;;;;;;;;;;;;;;;
2023/08/21 12:11:54;;;;;;;;;;;;;;;37.42;61.15;100042.03;4195361;34;36010;-94
2023/08/21 12:15:30;;;;;;;0.37;0.37;;;;;;;37.35;61.15;100052.06;4194756;34;19962;-95
2023/08/21 12:18:25;;;;;;;;;;;;;;;;;;;;;
2023/08/21 12:21:19;;;;;;;0.65;0.65;;;;;;;37.16;61.14;100045.66;4178187;34;35226;-96
2023/08/21 12:24:38;;;;;;;;;;;;;;;;;;;;;
2023/08/21 12:27:04;;;;;;;;;;;;;;;37.40;61.16;100037.88;4179535;34;35716;-94
2023/08/21 12:29:38;;;;;;;2.78;1.37;;;;;;;37.33;61.15;100035.16;4192880;34;20016;-94
2023/08/21 12:32:07;;;;;;;0.52;0.52;;;;;;;37.40;61.15;100033.28;4188620;33;20102;-94
2023/08/21 12:35:11;;;;;;;1.27;1.17;;;;;;;37.49;61.15;100025.69;4237972;33;20101;-95
2023/08/21 12:38:08;;;;;;;;;;;;;;;;;;;;;
2023/08/21 12:40:36;;;;;;;0.62;0.62;;;;;;;37.92;61.17;100030.47;4238069;33;36202;-95
2023/08/21 12:43:14;;;;;;;;;;;;;;;;;;;;;
2023/08/21 12:45:49;;;;;;;1.42;1.08;;;;;;;38.29;61.20;100026.00;4237198;33;35774;-95
2023/08/21 12:48:22;;;;;;;1.92;0.80;;;;;;;37.81;61.17;100033.87;4238045;33;20161;-93
2023/08/21 12:50:50;;;;;;;15.13;1.23;;;;;;;37.85;61.18;100025.06;4237867;33;20113;-92
2023/08/21 12:53:16;;;;;;;0.90;0.73;;;;;;;37.81;61.18;100025.72;4237297;33;20078;-93
2023/08/21 12:55:46;;;;;;;2.55;1.05;;;;;;;38.20;61.19;100024.63;4236944;33;20133;-93
2023/08/21 12:58:14;;;;;;;0.57;0.55;;;;;;;38.27;61.20;100023.50;4237832;33;20093;-93
2023/08/21 13:00:43;;;;;;;0.50;0.50;;;;;;;38.29;61.20;100013.22;4237810;33;20106;-94
2023/08/21 13:03:26;;;;;;;1.33;1.23;;;;;;;38.41;61.20;100015.25;4237715;33;20117;-93
2023/08/21 13:06:01;;;;;;;0.37;0.37;;;;;;;38.24;61.19;100010.34;4237426;33;20195;-94
2023/08/21 13:08:50;;;;;;;1.10;0.68;;;;;;;38.18;61.18;100015.88;4237441;33;20125;-95
2023/08/21 13:11:56;;;;;;;2.15;1.55;;;;;;;37.78;61.18;100010.69;4238149;33;20159;-94
2023/08/21 13:14:37;;;;;;;1.33;0.93;;;;;;;37.88;61.18;100005.63;4260695;33;20932;-94
2023/08/21 13:17:32;;;;;;;6.20;1.35;;;;;;;37.70;61.17;100003.63;4248762;33;20138;-95
2023/08/21 13:20:02;;;;;;;0.60;0.50;;;;;;;37.75;61.17;100003.00;4241413;33;20098;-94
2023/08/21 13:22:48;;;;;;;19.27;0.70;;;;;;;37.65;61.17;99997.19;4237954;33;20125;-96
2023/08/21 13:25:14;;;;;;;1.05;1.05;;;;;;;37.67;61.16;100000.53;4241174;33;20135;-94
2023/08/21 13:27:42;;;;;;;0.57;0.57;;;;;;;37.64;61.16;99990.09;4236851;33;20141;-95
2023/08/21 13:30:08;;;;;;;0.52;0.52;;;;;;;37.63;61.17;99996.59;4237521;33;20157;-95
2023/08/21 13:32:36;;;;;;;0.73;0.68;;;;;;;37.57;61.16;99987.41;4237328;33;20127;-94
2023/08/21 13:35:17;;;;;;;0.75;0.75;;;;;;;37.55;61.17;99994.09;4237225;33;20147;-94
2023/08/21 13:38:01;;;;;;;;;;;;;;;;;;;;;
2023/08/21 13:40:37;;;;;;;0.77;0.77;;;;;;;37.39;61.16;99988.16;4238045;33;36606;-95
2023/08/21 13:43:07;;;;;;;0.62;0.62;;;;;;;37.40;61.16;99989.00;4238760;33;20109;-94
2023/08/21 13:45:32;;;;;;;2.25;1.62;;;;;;;37.65;61.17;99984.44;4237381;33;20169;-94
2023/08/21 13:47:58;;;;;;;1.10;0.73;;;;;;;37.64;61.17;99979.22;4236824;33;20090;-93
2023/08/21 13:53:34;;;;;;;0.52;0.52;;;;;;;37.69;61.17;99987.56;4248894;33;20121;-94
2023/08/21 13:55:59;;;;;;;1.83;1.33;;;;;;;37.42;61.15;99989.59;4238432;33;20101;-95
2023/08/21 13:58:25;;;;;;;1.05;1.00;;;;;;;37.20;61.16;99989.06;4236710;33;20144;-95
2023/08/21 14:00:50;;;;;;;2.53;1.48;;;;;;;37.00;61.14;99989.16;4237381;33;20110;-94
2023/08/21 14:03:16;;;;;;;0.70;0.70;;;;;;;37.17;61.14;99993.06;4237161;33;20380;-94
2023/08/21 14:05:41;;;;;;;2.25;2.05;;;;;;;37.08;61.14;99969.91;4236672;33;20117;-95
2023/08/21 14:08:08;;;;;;;1.05;1.00;;;;;;;37.05;61.14;99972.22;4236892;33;20495;-94
2023/08/21 14:10:33;;;;;;;1.30;0.85;;;;;;;37.27;61.16;99973.59;4237134;33;20086;-95